Time;durP1;ratioP1;P1;durP2;ratioP2;P2;SDS_P1;SDS_P2;PMS_P1;PMS_P2;Temp;Humidity;BMP_temperature;BMP_pressure;BME280_temperature;BME280_humidity;BME280_pressure;Samples;Min_cycle;Max_cycle;Signal;HPM_P1;HPM_P2
2023/10/26 00:00:30;;;;;;;14.82;10.90;;;10.60;99.90;;;;;;5031756;28;20073;-85
2023/10/26 00:02:56;;;;;;;14.45;12.60;;;10.70;99.90;;;;;;5030212;28;20044;-85
2023/10/26 00:05:21;;;;;;;15.82;14.10;;;10.60;99.90;;;;;;5025369;28;20462;-84
2023/10/26 00:07:47;;;;;;;17.63;12.63;;;10.70;99.90;;;;;;5032293;28;20086;-84
2023/10/26 00:10:13;;;;;;;18.42;13.82;;;10.70;99.90;;;;;;5033155;28;20022;-84
2023/10/26 00:12:40;;;;;;;15.27;12.95;;;10.70;99.90;;;;;;5029461;28;20471;-84
2023/10/26 00:15:07;;;;;;;14.95;10.40;;;10.60;99.90;;;;;;5033481;28;20047;-85
2023/10/26 00:17:32;;;;;;;13.65;11.45;;;10.70;99.90;;;;;;5033465;28;20116;-85
2023/10/26 00:19:58;;;;;;;13.35;11.85;;;10.60;99.90;;;;;;5029761;28;20593;-85
2023/10/26 00:22:24;;;;;;;11.30;9.80;;;10.70;99.90;;;;;;5034738;28;20531;-84
2023/10/26 00:24:50;;;;;;;9.73;8.35;;;10.70;99.90;;;;;;5029852;28;20045;-85
2023/10/26 00:27:17;;;;;;;12.00;10.05;;;10.70;99.90;;;;;;5025576;28;20025;-84
2023/10/26 00:29:42;;;;;;;11.73;10.50;;;10.70;99.90;;;;;;5024140;28;20022;-85
2023/10/26 00:32:08;;;;;;;17.77;14.82;;;10.70;99.90;;;;;;5029689;28;20364;-84
2023/10/26 00:34:35;;;;;;;16.23;14.50;;;10.70;99.90;;;;;;5028485;28;20484;-84
2023/10/26 00:37:03;;;;;;;15.48;13.63;;;10.70;99.90;;;;;;5030119;28;20241;-85
2023/10/26 00:39:31;;;;;;;15.95;13.20;;;10.70;99.90;;;;;;5029759;28;20045;-84
2023/10/26 00:41:56;;;;;;;13.75;11.65;;;10.70;99.90;;;;;;5030507;28;20029;-85
2023/10/26 00:44:23;;;;;;;14.88;11.25;;;10.60;99.90;;;;;;5028477;28;20108;-84
2023/10/26 00:46:50;;;;;;;12.88;10.38;;;10.70;99.90;;;;;;5028246;28;20017;-85
2023/10/26 00:49:17;;;;;;;15.50;12.35;;;10.70;99.90;;;;;;5029526;28;20038;-85
2023/10/26 00:51:51;;;;;;;11.93;10.43;;;10.70;99.90;;;;;;5023154;28;20029;-85
2023/10/26 00:54:23;;;;;;;13.75;11.20;;;10.70;99.90;;;;;;5023795;28;20021;-84
2023/10/26 00:56:51;;;;;;;14.38;11.43;;;10.70;99.90;;;;;;5019081;28;20497;-84
2023/10/26 00:59:17;;;;;;;15.02;12.52;;;10.70;99.90;;;;;;5030616;28;20769;-85
2023/10/26 01:01:48;;;;;;;17.38;12.45;;;10.70;99.90;;;;;;5025411;28;20027;-85
2023/10/26 01:04:14;;;;;;;19.08;15.70;;;10.70;99.90;;;;;;5029636;28;20385;-85
2023/10/26 01:06:43;;;;;;;28.00;21.30;;;10.70;99.90;;;;;;5028893;28;20424;-85
2023/10/26 01:09:09;;;;;;;21.67;19.05;;;10.70;99.90;;;;;;5028459;28;20018;-84
2023/10/26 01:11:42;;;;;;;21.55;19.05;;;10.70;99.90;;;;;;5024213;28;20485;-84
2023/10/26 01:14:08;;;;;;;22.38;16.65;;;10.70;99.90;;;;;;5027283;28;20281;-84
2023/10/26 01:16:34;;;;;;;19.08;15.55;;;10.70;99.90;;;;;;5028438;28;20163;-85
2023/10/26 01:19:03;;;;;;;23.83;20.33;;;10.70;99.90;;;;;;5025542;28;20105;-84
2023/10/26 01:21:30;;;;;;;25.08;20.27;;;10.70;99.90;;;;;;5021542;28;20021;-85
2023/10/26 01:23:56;;;;;;;26.60;21.00;;;10.70;99.90;;;;;;5036662;28;20041;-84
2023/10/26 01:26:22;;;;;;;26.27;21.33;;;10.70;99.90;;;;;;5027671;28;20159;-84
2023/10/26 01:28:48;;;;;;;25.15;20.77;;;10.70;99.90;;;;;;5023672;28;20036;-84
2023/10/26 01:31:17;;;;;;;22.55;18.13;;;10.70;99.90;;;;;;5023716;28;20450;-85
2023/10/26 01:33:44;;;;;;;19.90;15.55;;;10.70;99.90;;;;;;5030192;28;20376;-85
2023/10/26 01:36:11;;;;;;;20.70;16.60;;;10.60;99.90;;;;;;5027457;28;20033;-84
2023/10/26 01:38:37;;;;;;;18.73;15.45;;;10.70;99.90;;;;;;5024486;28;20398;-84
2023/10/26 01:41:04;;;;;;;15.82;12.52;;;10.70;99.90;;;;;;5029667;28;20021;-84
2023/10/26 01:43:30;;;;;;;13.85;11.63;;;10.70;99.90;;;;;;5031877;28;20304;-84
2023/10/26 01:45:56;;;;;;;15.63;13.15;;;10.70;99.90;;;;;;5031693;28;20088;-85
2023/10/26 01:48:25;;;;;;;13.30;11.35;;;10.70;99.90;;;;;;5025460;28;20045;-84
2023/10/26 01:50:51;;;;;;;13.18;11.13;;;10.70;99.90;;;;;;5013269;28;20044;-84
2023/10/26 01:53:17;;;;;;;23.02;17.67;;;10.70;99.90;;;;;;5031062;28;20017;-85
2023/10/26 01:55:43;;;;;;;19.98;16.45;;;10.70;99.90;;;;;;5026440;28;20386;-85
2023/10/26 01:58:08;;;;;;;18.08;15.38;;;10.70;99.90;;;;;;5036782;28;20546;-84
2023/10/26 02:00:34;;;;;;;19.30;16.13;;;10.70;99.90;;;;;;5022543;28;20108;-83
2023/10/26 02:03:02;;;;;;;21.75;15.38;;;10.70;99.90;;;;;;5025885;28;20053;-84
2023/10/26 02:05:28;;;;;;;21.98;16.58;;;10.60;99.90;;;;;;5010985;28;20018;-84
2023/10/26 02:07:53;;;;;;;20.80;15.98;;;10.60;99.90;;;;;;5028277;28;20028;-83
2023/10/26 02:10:19;;;;;;;23.20;14.65;;;10.70;99.90;;;;;;5023201;28;20048;-83
2023/10/26 02:12:44;;;;;;;19.60;14.27;;;10.70;99.90;;;;;;5028357;28;20017;-84
2023/10/26 02:15:11;;;;;;;19.05;15.48;;;10.70;99.90;;;;;;5022366;28;20041;-84
2023/10/26 02:17:37;;;;;;;17.88;13.15;;;10.70;99.90;;;;;;5029362;28;20053;-83
2023/10/26 02:20:03;;;;;;;21.25;14.57;;;10.70;99.90;;;;;;5026090;28;20056;-83
2023/10/26 02:22:29;;;;;;;19.13;14.60;;;10.60;99.90;;;;;;5025569;28;20029;-84
2023/10/26 02:24:54;;;;;;;18.48;14.30;;;10.60;99.90;;;;;;5016317;28;20032;-83
2023/10/26 02:27:21;;;;;;;22.90;16.95;;;10.60;99.90;;;;;;5023658;28;20017;-84
2023/10/26 02:29:46;;;;;;;15.45;12.98;;;10.60;99.90;;;;;;5033017;28;20110;-84
2023/10/26 02:32:12;;;;;;;13.18;11.15;;;10.60;99.90;;;;;;5027593;28;20013;-83
2023/10/26 02:34:38;;;;;;;16.75;12.40;;;10.70;99.90;;;;;;5025498;28;20025;-83
2023/10/26 02:37:03;;;;;;;11.50;10.20;;;10.60;99.90;;;;;;5025794;28;20025;-84
2023/10/26 02:39:29;;;;;;;14.90;9.32;;;10.60;99.90;;;;;;5022047;28;20259;-84
2023/10/26 02:41:55;;;;;;;10.95;8.55;;;10.60;99.90;;;;;;5025194;28;20037;-84
2023/10/26 02:44:20;;;;;;;7.43;6.63;;;10.60;99.90;;;;;;5030191;28;20026;-84
2023/10/26 02:46:49;;;;;;;16.27;13.15;;;10.60;99.90;;;;;;5025422;28;20025;-84
2023/10/26 02:49:16;;;;;;;17.60;15.02;;;10.70;99.90;;;;;;5024776;28;20026;-83
2023/10/26 02:51:41;;;;;;;23.23;16.95;;;10.70;99.90;;;;;;5023383;28;20025;-84
2023/10/26 02:54:07;;;;;;;17.48;13.90;;;10.70;99.90;;;;;;5027891;28;20030;-84
2023/10/26 02:56:32;;;;;;;22.48;17.05;;;10.70;99.90;;;;;;5037122;28;20036;-84
2023/10/26 02:58:58;;;;;;;14.98;12.68;;;10.70;99.90;;;;;;5032128;28;20034;-84
2023/10/26 03:01:23;;;;;;;21.85;16.50;;;10.70;99.90;;;;;;5030531;28;20017;-84
2023/10/26 03:03:49;;;;;;;17.17;13.00;;;10.70;99.90;;;;;;5031525;28;20033;-84
2023/10/26 03:06:15;;;;;;;21.75;15.00;;;10.70;99.90;;;;;;5025206;28;20033;-84
2023/10/26 03:08:40;;;;;;;21.15;15.55;;;10.70;99.90;;;;;;5031500;28;20029;-84
2023/10/26 03:11:06;;;;;;;17.58;14.20;;;10.70;99.90;;;;;;5028287;28;20021;-85
2023/10/26 03:13:32;;;;;;;21.13;15.98;;;10.70;99.90;;;;;;5029962;28;20025;-84
2023/10/26 03:15:57;;;;;;;23.73;17.98;;;10.70;99.90;;;;;;5026280;28;20539;-84
2023/10/26 03:18:23;;;;;;;20.05;17.10;;;10.70;99.90;;;;;;5028163;28;20036;-83
2023/10/26 03:20:48;;;;;;;24.67;17.38;;;10.70;99.90;;;;;;5029653;28;20039;-84
2023/10/26 03:23:15;;;;;;;22.33;17.23;;;10.60;99.90;;;;;;5035924;28;20240;-84
2023/10/26 03:25:40;;;;;;;22.17;17.42;;;10.60;99.90;;;;;;5034006;28;20067;-84
2023/10/26 03:28:06;;;;;;;19.38;14.40;;;10.60;99.90;;;;;;5035517;28;20025;-84
2023/10/26 03:30:31;;;;;;;16.58;13.27;;;10.60;99.90;;;;;;5039341;28;20029;-84
2023/10/26 03:32:57;;;;;;;15.68;13.35;;;10.60;99.90;;;;;;5030592;28;20041;-84
2023/10/26 03:35:23;;;;;;;15.95;13.02;;;10.60;99.90;;;;;;5031601;28;20029;-84
2023/10/26 03:37:48;;;;;;;15.38;12.35;;;10.70;99.90;;;;;;5025664;28;20034;-84
2023/10/26 03:40:14;;;;;;;17.08;12.50;;;10.70;99.90;;;;;;5032769;28;20028;-84
2023/10/26 03:42:40;;;;;;;15.90;12.48;;;10.70;99.90;;;;;;5031081;28;20112;-83
2023/10/26 03:45:06;;;;;;;22.23;15.95;;;10.70;99.90;;;;;;5027052;28;20013;-84
2023/10/26 03:47:32;;;;;;;22.63;15.70;;;10.70;99.90;;;;;;5021388;28;20334;-83
2023/10/26 03:49:57;;;;;;;19.05;14.05;;;10.70;99.90;;;;;;5029249;28;20464;-84
2023/10/26 03:52:23;;;;;;;17.40;13.23;;;10.60;99.90;;;;;;5017667;28;20168;-84
2023/10/26 03:54:48;;;;;;;15.18;11.27;;;10.70;99.90;;;;;;5024187;28;20499;-84
2023/10/26 03:57:15;;;;;;;16.75;13.05;;;10.70;99.90;;;;;;5024073;28;20021;-84
2023/10/26 03:59:42;;;;;;;14.65;10.98;;;10.70;99.90;;;;;;5032410;28;20029;-84
2023/10/26 04:02:08;;;;;;;14.15;10.65;;;10.70;99.90;;;;;;5023992;28;20429;-84
2023/10/26 04:04:33;;;;;;;14.43;10.50;;;10.70;99.90;;;;;;5019927;28;20116;-84
2023/10/26 04:06:59;;;;;;;13.98;10.88;;;10.70;99.90;;;;;;5030270;28;20021;-84
2023/10/26 04:09:25;;;;;;;13.55;10.27;;;10.70;99.90;;;;;;5021153;28;20027;-83
2023/10/26 04:11:50;;;;;;;17.55;13.00;;;10.70;99.90;;;;;;5025439;28;20030;-84
2023/10/26 04:14:16;;;;;;;16.02;12.30;;;10.70;99.90;;;;;;5028317;28;20148;-84
2023/10/26 04:16:41;;;;;;;15.35;11.40;;;10.70;99.90;;;;;;5026898;28;20380;-84
2023/10/26 04:19:07;;;;;;;16.85;12.82;;;10.70;99.90;;;;;;5027840;28;20055;-85
2023/10/26 04:21:33;;;;;;;14.48;11.85;;;10.80;99.90;;;;;;5026997;28;20053;-84
2023/10/26 04:23:59;;;;;;;16.90;12.65;;;10.70;99.90;;;;;;5025029;28;20037;-84
2023/10/26 04:26:25;;;;;;;14.43;10.98;;;10.70;99.90;;;;;;5035926;28;20076;-84
2023/10/26 04:28:51;;;;;;;12.05;10.00;;;10.70;99.90;;;;;;5027728;28;20033;-84
2023/10/26 04:31:17;;;;;;;11.13;9.18;;;10.70;99.90;;;;;;5025799;28;20021;-84
2023/10/26 04:33:43;;;;;;;9.10;7.63;;;10.70;99.90;;;;;;5024236;28;20024;-84
2023/10/26 04:36:09;;;;;;;9.65;7.10;;;10.70;99.90;;;;;;5027228;28;20056;-83
2023/10/26 04:38:34;;;;;;;7.40;6.50;;;10.70;99.90;;;;;;5029518;28;20019;-84
2023/10/26 04:41:00;;;;;;;10.10;8.10;;;10.70;99.90;;;;;;5019803;28;20055;-83
2023/10/26 04:43:26;;;;;;;9.60;7.22;;;10.70;99.90;;;;;;5029599;28;20100;-84
2023/10/26 04:45:52;;;;;;;15.75;8.27;;;10.70;99.90;;;;;;5014385;28;20032;-84
2023/10/26 04:48:18;;;;;;;4.70;3.33;;;10.70;99.90;;;;;;5028520;28;20066;-84
2023/10/26 04:50:43;;;;;;;3.45;3.03;;;10.80;99.90;;;;;;5026109;28;20112;-84
2023/10/26 04:53:09;;;;;;;2.95;2.60;;;10.80;99.90;;;;;;5028561;28;20028;-84
2023/10/26 04:55:35;;;;;;;2.42;2.22;;;10.80;99.90;;;;;;5028838;28;20490;-84
2023/10/26 04:58:02;;;;;;;3.00;2.70;;;10.80;99.90;;;;;;5024713;28;20093;-85
2023/10/26 05:00:27;;;;;;;2.42;2.22;;;10.80;99.90;;;;;;5032829;28;20091;-84
2023/10/26 05:02:53;;;;;;;2.00;1.73;;;10.80;99.90;;;;;;5026873;28;20049;-84
2023/10/26 05:05:19;;;;;;;1.98;1.77;;;10.80;99.90;;;;;;5028038;28;20108;-84
2023/10/26 05:07:48;;;;;;;3.55;2.40;;;10.80;99.90;;;;;;5023360;28;20057;-84
2023/10/26 05:10:14;;;;;;;2.28;2.08;;;10.80;99.90;;;;;;5019766;28;20355;-84
2023/10/26 05:12:39;;;;;;;1.90;1.80;;;10.80;99.90;;;;;;5027664;28;20017;-84
2023/10/26 05:15:05;;;;;;;2.65;2.03;;;10.80;99.90;;;;;;5019475;28;20025;-84
2023/10/26 05:17:31;;;;;;;1.98;1.88;;;10.80;99.90;;;;;;5026612;28;20021;-84
2023/10/26 05:19:57;;;;;;;2.35;2.10;;;10.80;99.90;;;;;;5016921;28;20595;-84
2023/10/26 05:22:23;;;;;;;6.68;2.85;;;10.80;99.90;;;;;;5021014;28;20216;-84
2023/10/26 05:24:48;;;;;;;2.53;2.03;;;10.80;99.90;;;;;;5024669;28;20030;-84
2023/10/26 05:27:14;;;;;;;3.83;2.15;;;10.80;99.90;;;;;;5025491;28;20453;-83
2023/10/26 05:29:40;;;;;;;9.45;1.60;;;10.80;99.90;;;;;;5020882;28;20113;-83
2023/10/26 05:32:08;;;;;;;1.63;1.52;;;10.80;99.90;;;;;;5020617;28;20052;-84
2023/10/26 05:34:34;;;;;;;3.53;1.23;;;10.80;99.90;;;;;;5004938;28;20033;-83
2023/10/26 05:36:59;;;;;;;4.47;1.60;;;10.80;99.90;;;;;;5018453;28;20640;-84
2023/10/26 05:39:25;;;;;;;1.40;1.30;;;10.80;99.90;;;;;;5016024;28;20048;-84
2023/10/26 05:41:51;;;;;;;1.27;1.20;;;10.80;99.90;;;;;;5018985;28;20043;-84
2023/10/26 05:44:17;;;;;;;3.28;1.52;;;10.90;99.90;;;;;;5022220;28;20083;-84
2023/10/26 05:46:43;;;;;;;9.98;1.70;;;10.80;99.90;;;;;;5028167;28;20438;-84
2023/10/26 05:49:08;;;;;;;3.15;1.52;;;10.80;99.90;;;;;;5018437;28;20033;-88
2023/10/26 05:51:34;;;;;;;5.55;2.33;;;10.90;99.90;;;;;;5008400;28;20181;-84
2023/10/26 05:54:00;;;;;;;2.60;2.10;;;10.80;99.90;;;;;;5029547;28;20013;-85
2023/10/26 05:56:29;;;;;;;2.20;2.00;;;10.80;99.90;;;;;;5023499;28;20036;-85
2023/10/26 05:58:57;;;;;;;4.30;2.30;;;10.80;99.90;;;;;;5030759;28;20061;-85
2023/10/26 06:01:23;;;;;;;2.40;2.10;;;10.80;99.90;;;;;;5019322;28;20051;-83
2023/10/26 06:03:48;;;;;;;2.28;2.08;;;10.80;99.90;;;;;;5007718;28;20077;-82
2023/10/26 06:06:14;;;;;;;3.33;2.88;;;10.80;99.90;;;;;;5027941;28;20540;-83
2023/10/26 06:08:40;;;;;;;2.80;2.60;;;10.70;99.90;;;;;;5023596;28;20045;-85
2023/10/26 06:11:05;;;;;;;4.10;2.30;;;10.70;99.90;;;;;;5027948;28;20473;-85
2023/10/26 06:13:31;;;;;;;2.22;2.03;;;10.70;99.90;;;;;;5023342;28;20124;-84
2023/10/26 06:15:57;;;;;;;2.70;2.50;;;10.70;99.90;;;;;;5018771;28;20029;-84
2023/10/26 06:18:22;;;;;;;2.25;2.05;;;10.60;99.90;;;;;;5024109;28;20030;-84
2023/10/26 06:21:03;;;;;;;2.78;2.58;;;10.60;99.90;;;;;;5021453;28;20493;-84
2023/10/26 06:23:29;;;;;;;3.65;2.50;;;10.60;99.90;;;;;;5022020;28;20036;-85
2023/10/26 06:25:59;;;;;;;2.85;2.50;;;10.60;99.90;;;;;;5007663;28;20033;-84
2023/10/26 06:28:25;;;;;;;3.55;2.40;;;10.60;99.90;;;;;;5019128;28;20084;-84
2023/10/26 06:30:51;;;;;;;4.32;2.70;;;10.60;99.90;;;;;;5018601;28;21158;-84
2023/10/26 06:33:17;;;;;;;5.57;2.47;;;10.60;99.90;;;;;;5026451;28;20037;-84
2023/10/26 06:35:42;;;;;;;4.38;2.72;;;10.60;99.90;;;;;;5027766;28;20037;-84
2023/10/26 06:38:08;;;;;;;4.93;3.10;;;10.60;99.90;;;;;;5029559;28;20056;-84
2023/10/26 06:40:33;;;;;;;3.83;2.72;;;10.60;99.90;;;;;;5026205;28;20040;-84
2023/10/26 06:43:00;;;;;;;2.47;2.28;;;10.60;99.90;;;;;;5028836;28;20040;-84
2023/10/26 06:45:26;;;;;;;3.17;2.55;;;10.60;99.90;;;;;;5026526;28;20018;-85
2023/10/26 06:47:52;;;;;;;5.60;2.70;;;10.50;99.90;;;;;;5023708;28;20031;-84
2023/10/26 06:50:17;;;;;;;4.07;2.83;;;10.50;99.90;;;;;;5028347;28;20203;-84
2023/10/26 06:52:43;;;;;;;8.60;2.80;;;10.50;99.90;;;;;;5025710;28;20359;-85
2023/10/26 06:55:14;;;;;;;4.22;2.60;;;10.50;99.90;;;;;;5028753;28;20039;-84
2023/10/26 06:57:41;;;;;;;3.53;3.08;;;10.50;99.90;;;;;;5027335;28;20032;-84
2023/10/26 07:00:07;;;;;;;4.25;2.75;;;10.50;99.90;;;;;;5027261;28;20466;-84
2023/10/26 07:02:33;;;;;;;4.53;3.03;;;10.50;99.90;;;;;;5026719;28;20037;-84
2023/10/26 07:04:59;;;;;;;3.72;2.88;;;10.50;99.90;;;;;;5023588;28;20018;-85
2023/10/26 07:07:26;;;;;;;2.70;2.50;;;10.50;99.90;;;;;;5024440;28;20429;-84
2023/10/26 07:09:52;;;;;;;4.32;3.15;;;10.50;99.90;;;;;;5026256;28;20478;-84
2023/10/26 07:12:18;;;;;;;2.72;2.45;;;10.50;99.90;;;;;;5009120;28;20052;-84
2023/10/26 07:14:43;;;;;;;16.13;3.17;;;10.50;99.90;;;;;;5022463;28;20406;-84
2023/10/26 07:17:09;;;;;;;3.20;2.88;;;10.50;99.90;;;;;;5022815;28;20076;-84
2023/10/26 07:19:35;;;;;;;3.13;2.50;;;10.50;99.90;;;;;;5007205;28;20120;-84
2023/10/26 07:22:00;;;;;;;3.13;2.75;;;10.50;99.90;;;;;;5026143;28;20351;-85
2023/10/26 07:24:26;;;;;;;5.57;2.92;;;10.50;99.90;;;;;;5022155;28;20043;-85
2023/10/26 07:26:51;;;;;;;9.68;3.75;;;10.50;99.90;;;;;;5028300;28;20378;-84
2023/10/26 07:29:17;;;;;;;6.03;4.03;;;10.50;99.90;;;;;;5026282;28;20442;-85
2023/10/26 07:31:44;;;;;;;8.48;4.30;;;10.60;99.90;;;;;;5034751;28;20121;-85
2023/10/26 07:34:09;;;;;;;4.90;3.20;;;10.60;99.90;;;;;;5027539;28;20024;-85
2023/10/26 07:36:35;;;;;;;14.68;4.05;;;10.70;99.90;;;;;;5023028;28;20033;-84
2023/10/26 07:39:01;;;;;;;3.40;2.88;;;10.70;99.90;;;;;;5024616;28;20033;-85
2023/10/26 07:41:30;;;;;;;6.32;3.38;;;10.70;99.90;;;;;;5019880;28;20031;-84
2023/10/26 07:43:55;;;;;;;4.60;3.00;;;10.70;99.90;;;;;;5023723;28;20028;-85
2023/10/26 07:46:21;;;;;;;3.70;2.85;;;10.70;99.90;;;;;;5023853;28;20029;-85
2023/10/26 07:48:47;;;;;;;5.95;2.60;;;10.70;99.90;;;;;;5018469;28;20030;-84
2023/10/26 07:51:13;;;;;;;13.40;2.80;;;10.60;99.90;;;;;;5017183;28;20566;-85
2023/10/26 07:53:38;;;;;;;11.15;2.72;;;10.70;99.90;;;;;;5026451;28;20048;-84
2023/10/26 07:56:04;;;;;;;4.30;2.35;;;10.70;99.90;;;;;;5023850;28;20041;-84
2023/10/26 07:58:30;;;;;;;2.72;2.30;;;10.70;99.90;;;;;;5020786;28;20389;-84
2023/10/26 08:00:56;;;;;;;3.63;2.60;;;10.70;99.90;;;;;;5020529;28;20029;-84
2023/10/26 08:03:27;;;;;;;2.67;2.30;;;10.70;99.90;;;;;;5026693;28;20061;-84
2023/10/26 08:05:57;;;;;;;2.75;2.55;;;10.70;99.90;;;;;;5023110;28;20086;-85
2023/10/26 08:08:23;;;;;;;5.28;2.33;;;10.70;99.90;;;;;;5024704;28;20025;-84
2023/10/26 08:10:49;;;;;;;3.03;2.40;;;10.70;99.90;;;;;;5031662;28;20025;-84
2023/10/26 08:13:15;;;;;;;1.80;1.70;;;10.70;99.90;;;;;;5022646;28;20021;-84
2023/10/26 08:15:42;;;;;;;1.70;1.60;;;10.70;99.90;;;;;;5003735;28;20132;-84
2023/10/26 08:18:08;;;;;;;4.20;1.85;;;10.70;99.90;;;;;;5027412;28;20049;-84
2023/10/26 08:20:34;;;;;;;3.83;1.77;;;10.70;99.90;;;;;;5026431;28;20432;-84
2023/10/26 08:23:02;;;;;;;5.18;1.95;;;10.70;99.90;;;;;;5016314;28;20021;-84
2023/10/26 08:25:28;;;;;;;5.30;1.70;;;10.70;99.90;;;;;;5001106;28;20037;-83
2023/10/26 08:27:54;;;;;;;1.52;1.42;;;10.80;99.90;;;;;;5020638;28;20053;-83
2023/10/26 08:30:20;;;;;;;4.85;1.42;;;10.80;99.90;;;;;;5018739;28;20148;-84
2023/10/26 08:32:49;;;;;;;3.65;1.63;;;10.80;99.90;;;;;;5025447;28;20438;-85
2023/10/26 08:35:14;;;;;;;1.52;1.42;;;10.80;99.90;;;;;;5022577;28;20116;-84
2023/10/26 08:37:40;;;;;;;1.45;1.33;;;10.80;99.90;;;;;;5024993;28;20413;-84
2023/10/26 08:40:11;;;;;;;1.90;1.70;;;10.80;99.90;;;;;;5025633;28;20078;-84
2023/10/26 08:42:38;;;;;;;2.78;1.40;;;10.70;99.90;;;;;;5026874;28;20033;-83
2023/10/26 08:45:09;;;;;;;3.10;1.08;;;10.80;99.90;;;;;;5019737;28;20032;-83
2023/10/26 08:47:36;;;;;;;1.40;1.30;;;10.80;99.90;;;;;;5017650;28;20052;-85
2023/10/26 08:50:02;;;;;;;1.58;1.40;;;10.80;99.90;;;;;;5022035;28;20088;-85
2023/10/26 08:52:28;;;;;;;1.52;1.20;;;10.90;99.90;;;;;;5020391;28;20041;-84
2023/10/26 08:54:54;;;;;;;1.50;1.02;;;10.90;99.90;;;;;;5020788;28;20087;-85
2023/10/26 08:57:20;;;;;;;2.92;1.27;;;11.00;99.90;;;;;;5025388;28;20393;-86
2023/10/26 08:59:46;;;;;;;5.38;1.10;;;11.10;99.90;;;;;;5025551;28;20017;-84
2023/10/26 09:02:12;;;;;;;1.25;1.15;;;11.20;99.90;;;;;;5020538;28;21053;-86
2023/10/26 09:04:38;;;;;;;2.72;1.38;;;11.20;99.90;;;;;;5020682;28;20037;-84
2023/10/26 09:07:03;;;;;;;0.63;0.63;;;11.20;99.90;;;;;;5021869;28;20071;-83
2023/10/26 09:09:43;;;;;;;1.27;0.80;;;11.20;99.90;;;;;;5026702;28;20509;-84
2023/10/26 09:12:09;;;;;;;5.03;1.95;;;11.20;99.90;;;;;;5027092;28;20030;-83
2023/10/26 09:14:35;;;;;;;5.57;1.27;;;11.20;99.90;;;;;;5025065;28;20393;-84
2023/10/26 09:17:00;;;;;;;1.27;1.02;;;11.20;99.90;;;;;;5026621;28;20128;-84
2023/10/26 09:19:38;;;;;;;2.63;1.00;;;11.20;99.90;;;;;;5025254;28;20349;-84
2023/10/26 09:22:03;;;;;;;2.15;0.88;;;11.20;99.90;;;;;;5026339;28;20029;-87
2023/10/26 09:24:29;;;;;;;0.88;0.80;;;11.20;99.90;;;;;;5026793;28;20504;-84
2023/10/26 09:26:59;;;;;;;1.08;0.80;;;11.30;99.90;;;;;;5027437;28;20068;-83
2023/10/26 09:29:38;;;;;;;1.20;1.13;;;11.20;99.90;;;;;;5026534;28;20029;-84
2023/10/26 09:32:05;;;;;;;0.93;0.93;;;11.20;99.90;;;;;;5027067;28;20032;-84
2023/10/26 09:34:30;;;;;;;1.70;0.90;;;11.20;99.90;;;;;;5014312;28;20089;-85
2023/10/26 09:37:01;;;;;;;0.98;0.98;;;11.20;99.90;;;;;;5024550;28;20112;-84
2023/10/26 09:39:30;;;;;;;1.67;1.27;;;11.20;99.90;;;;;;5025350;28;20087;-84
2023/10/26 09:41:57;;;;;;;5.75;1.63;;;11.20;99.90;;;;;;5025128;28;20408;-84
2023/10/26 09:44:24;;;;;;;10.65;4.57;;;11.20;99.90;;;;;;5020092;28;20443;-84
2023/10/26 09:46:50;;;;;;;4.70;3.60;;;11.20;99.90;;;;;;5021487;28;20033;-88
2023/10/26 09:49:16;;;;;;;1.00;1.00;;;11.20;99.90;;;;;;5021232;28;20302;-86
2023/10/26 09:51:43;;;;;;;1.35;1.00;;;11.30;99.90;;;;;;4997952;28;20067;-84
2023/10/26 09:54:09;;;;;;;7.97;4.05;;;11.30;99.90;;;;;;5016256;28;20029;-82
2023/10/26 09:56:39;;;;;;;3.08;2.08;;;11.30;99.90;;;;;;5023421;28;20124;-86
2023/10/26 09:59:05;;;;;;;1.35;1.02;;;11.20;99.90;;;;;;5021605;28;20140;-86
2023/10/26 10:01:39;;;;;;;4.63;3.65;;;11.20;99.90;;;;;;5021788;28;20461;-83
2023/10/26 10:04:06;;;;;;;2.15;1.88;;;11.30;99.90;;;;;;5021535;28;20045;-83
2023/10/26 10:06:49;;;;;;;1.00;0.90;;;11.20;99.90;;;;;;5022314;28;20029;-84
2023/10/26 10:09:17;;;;;;;2.80;1.00;;;11.20;99.90;;;;;;5016439;28;20512;-85
2023/10/26 10:11:43;;;;;;;2.40;2.20;;;11.30;99.90;;;;;;5022609;28;20029;-86
2023/10/26 10:14:08;;;;;;;1.40;1.30;;;11.30;99.90;;;;;;5019448;28;20048;-84
2023/10/26 10:16:34;;;;;;;2.03;0.77;;;11.30;99.90;;;;;;5018402;28;20057;-85
2023/10/26 10:19:19;;;;;;;0.88;0.88;;;11.40;99.90;;;;;;5017119;28;20389;-84
2023/10/26 10:21:44;;;;;;;2.85;2.03;;;11.40;99.90;;;;;;5019358;28;20029;-85
2023/10/26 10:24:10;;;;;;;2.20;2.00;;;11.40;99.90;;;;;;5017926;28;20033;-84
2023/10/26 10:27:10;;;;;;;2.72;1.45;;;11.40;99.90;;;;;;5020589;28;20497;-85
2023/10/26 10:29:36;;;;;;;3.78;0.90;;;11.50;99.90;;;;;;5023094;28;20124;-84
2023/10/26 10:32:02;;;;;;;1.35;1.00;;;11.50;99.90;;;;;;5022807;28;20113;-85
2023/10/26 10:34:41;;;;;;;0.90;0.90;;;11.50;99.90;;;;;;5026253;28;20042;-87
2023/10/26 10:37:21;;;;;;;1.08;1.08;;;11.50;99.90;;;;;;5021818;28;20501;-85
2023/10/26 10:40:19;;;;;;;2.20;0.90;;;11.50;99.90;;;;;;5020691;28;20698;-85
2023/10/26 10:42:50;;;;;;;2.05;0.85;;;11.50;99.90;;;;;;5023738;28;20289;-85
2023/10/26 10:45:19;;;;;;;1.38;0.88;;;11.60;99.90;;;;;;5025261;28;20029;-84
2023/10/26 10:47:49;;;;;;;1.20;0.80;;;11.60;99.90;;;;;;5004580;28;20017;-85
2023/10/26 10:50:21;;;;;;;1.45;0.68;;;11.60;99.90;;;;;;5022640;28;20509;-85
2023/10/26 10:52:48;;;;;;;0.70;0.70;;;11.60;99.90;;;;;;5024802;28;20029;-85
2023/10/26 10:55:28;;;;;;;0.60;0.60;;;11.60;99.90;;;;;;5022989;28;20034;-85
2023/10/26 10:57:59;;;;;;;1.08;0.82;;;11.60;99.90;;;;;;5025651;28;20029;-86
2023/10/26 11:00:46;;;;;;;0.73;0.73;;;11.60;99.90;;;;;;5025661;28;20021;-85
2023/10/26 11:03:18;;;;;;;0.70;0.70;;;11.60;99.90;;;;;;5016376;28;20093;-86
2023/10/26 11:05:44;;;;;;;6.07;1.02;;;11.60;99.90;;;;;;5020646;28;20036;-84
2023/10/26 11:08:10;;;;;;;1.02;1.02;;;11.60;99.90;;;;;;5022583;28;20026;-85
2023/10/26 11:10:36;;;;;;;1.08;0.90;;;11.60;99.90;;;;;;5023739;28;20030;-85
2023/10/26 11:13:05;;;;;;;0.70;0.70;;;11.60;99.90;;;;;;5022028;28;20152;-85
2023/10/26 11:15:33;;;;;;;3.03;0.80;;;11.60;99.90;;;;;;5020676;28;20045;-85
2023/10/26 11:17:59;;;;;;;0.80;0.80;;;11.60;99.90;;;;;;5028282;28;20030;-86
2023/10/26 11:20:45;;;;;;;1.10;0.80;;;11.50;99.90;;;;;;5010123;28;20581;-85
2023/10/26 11:23:11;;;;;;;;;;;11.50;99.90;;;;;;5024640;28;20037;-85
2023/10/26 11:25:38;;;;;;;3.88;1.00;;;11.50;99.90;;;;;;5028634;28;19909;-86
2023/10/26 11:28:04;;;;;;;0.95;0.80;;;11.50;99.90;;;;;;5011976;28;20026;-87
2023/10/26 11:30:44;;;;;;;0.82;0.80;;;11.50;99.90;;;;;;5028354;28;20570;-86
2023/10/26 11:33:09;;;;;;;2.35;0.68;;;11.50;99.90;;;;;;5028814;28;20045;-85
2023/10/26 11:35:42;;;;;;;1.45;0.80;;;11.50;99.90;;;;;;5029480;28;20072;-85
2023/10/26 11:38:08;;;;;;;0.82;0.80;;;11.50;99.90;;;;;;5017180;28;20037;-85
2023/10/26 11:40:34;;;;;;;0.75;0.75;;;11.40;99.90;;;;;;5021107;28;20506;-85
2023/10/26 11:43:01;;;;;;;0.77;0.77;;;11.40;99.90;;;;;;5028370;28;20030;-85
2023/10/26 11:45:27;;;;;;;1.23;0.70;;;11.40;99.90;;;;;;5024752;28;20115;-85
2023/10/26 11:48:01;;;;;;;0.90;0.90;;;11.40;99.90;;;;;;5027534;28;20021;-86
2023/10/26 11:50:27;;;;;;;2.95;0.50;;;11.40;99.90;;;;;;5019600;28;20025;-85
2023/10/26 11:52:59;;;;;;;0.80;0.80;;;11.50;99.90;;;;;;5027150;28;20057;-85
2023/10/26 11:55:27;;;;;;;0.70;0.70;;;11.50;99.90;;;;;;5010075;28;20041;-85
2023/10/26 11:57:56;;;;;;;4.68;0.50;;;11.60;99.90;;;;;;5018990;28;20497;-89
2023/10/26 12:00:22;;;;;;;0.70;0.70;;;11.60;99.90;;;;;;5028919;28;20424;-85
2023/10/26 12:02:48;;;;;;;5.93;0.65;;;11.80;99.90;;;;;;5008843;28;20045;-85
2023/10/26 12:05:18;;;;;;;0.47;0.47;;;11.80;99.90;;;;;;5028574;28;20113;-85
2023/10/26 12:07:44;;;;;;;1.35;0.60;;;11.80;99.90;;;;;;5017065;28;20490;-90
2023/10/26 12:10:11;;;;;;;0.73;0.50;;;11.90;99.90;;;;;;5027798;28;20037;-86
2023/10/26 12:12:37;;;;;;;0.80;0.50;;;11.80;99.90;;;;;;5002878;28;20909;-85
2023/10/26 12:15:04;;;;;;;2.85;0.50;;;11.80;99.90;;;;;;5020500;28;20063;-84
2023/10/26 12:17:29;;;;;;;0.50;0.50;;;11.70;99.90;;;;;;5021957;28;20309;-85
2023/10/26 12:19:55;;;;;;;4.25;0.50;;;11.80;99.90;;;;;;5004656;28;20060;-86
2023/10/26 12:22:20;;;;;;;1.92;0.95;;;11.80;99.90;;;;;;5003618;28;20026;-85
2023/10/26 12:24:47;;;;;;;0.73;0.60;;;11.80;99.90;;;;;;5024144;28;20306;-85
2023/10/26 12:27:16;;;;;;;1.40;0.60;;;11.80;99.90;;;;;;5022949;28;20033;-86
2023/10/26 12:29:43;;;;;;;0.60;0.60;;;11.80;99.90;;;;;;5018589;28;20022;-89
2023/10/26 12:32:09;;;;;;;1.70;0.77;;;11.80;99.90;;;;;;5005721;28;20026;-87
2023/10/26 12:34:34;;;;;;;0.65;0.55;;;11.80;99.90;;;;;;5025479;28;20037;-85
2023/10/26 12:37:00;;;;;;;0.75;0.57;;;11.70;99.90;;;;;;5026243;28;20103;-84
2023/10/26 12:39:26;;;;;;;1.02;0.75;;;11.70;99.90;;;;;;5024595;28;20075;-84